Time;durP1;ratioP1;P1;durP2;ratioP2;P2;SDS_P1;SDS_P2;PMS_P1;PMS_P2;Temp;Humidity;BMP_temperature;BMP_pressure;BME280_temperature;BME280_humidity;BME280_pressure;Samples;Min_cycle;Max_cycle;Signal;HPM_P1;HPM_P2
2021/07/23 00:02:09;;;;;;;8.15;4.30;;;;;;;;;;4972647;28;20031;-68
2021/07/23 00:04:34;;;;;;;6.80;4.50;;;;;;;;;;4972683;28;20053;-68
2021/07/23 00:07:00;;;;;;;8.38;4.72;;;;;;;;;;4972725;28;20019;-68
2021/07/23 00:09:25;;;;;;;7.38;4.47;;;;;;;;;;4972596;28;20110;-68
2021/07/23 00:11:51;;;;;;;7.32;4.80;;;;;;;;;;4972982;28;20161;-68
2021/07/23 00:14:16;;;;;;;8.55;4.60;;;;;;;;;;4972228;28;20027;-68
2021/07/23 00:16:42;;;;;;;7.57;4.63;;;;;;;;;;4970262;28;20038;-68
2021/07/23 00:19:07;;;;;;;7.97;4.90;;;;;;;;;;4975729;28;20033;-68
2021/07/23 00:21:33;;;;;;;9.73;4.20;;;;;;;;;;4973400;28;20026;-68
2021/07/23 00:23:58;;;;;;;6.78;4.15;;;;;;;;;;4973361;28;20105;-68
2021/07/23 00:26:24;;;;;;;7.40;4.32;;;;;;;;;;4971386;28;20038;-67
2021/07/23 00:28:50;;;;;;;6.82;4.22;;;;;;;;;;4971853;28;20037;-68
2021/07/23 00:31:16;;;;;;;10.20;4.88;;;;;;;;;;4972598;28;20046;-67
2021/07/23 00:33:42;;;;;;;11.55;5.18;;;;;;;;;;4972770;28;20048;-68
2021/07/23 00:36:08;;;;;;;5.72;4.20;;;;;;;;;;4972820;28;20356;-68
2021/07/23 00:38:33;;;;;;;6.95;4.20;;;;;;;;;;4972493;28;20030;-67
2021/07/23 00:40:59;;;;;;;6.60;4.28;;;;;;;;;;4972248;28;20026;-67
2021/07/23 00:43:25;;;;;;;6.78;4.75;;;;;;;;;;4972164;28;20039;-67
2021/07/23 00:45:51;;;;;;;6.15;4.00;;;;;;;;;;4972902;28;20375;-67
2021/07/23 00:48:16;;;;;;;7.82;4.32;;;;;;;;;;4971724;28;20034;-68
2021/07/23 00:50:43;;;;;;;8.65;4.65;;;;;;;;;;4973607;28;20532;-68
2021/07/23 00:53:10;;;;;;;7.68;4.18;;;;;;;;;;4980370;28;20031;-68
2021/07/23 00:55:37;;;;;;;6.63;4.55;;;;;;;;;;4973071;28;20042;-68
2021/07/23 00:58:04;;;;;;;7.93;4.72;;;;;;;;;;4972690;28;20042;-68
2021/07/23 01:00:30;;;;;;;9.23;4.65;;;;;;;;;;4974008;28;20041;-67
2021/07/23 01:02:56;;;;;;;7.55;4.72;;;;;;;;;;4975498;28;20026;-67
2021/07/23 01:05:22;;;;;;;6.25;4.15;;;;;;;;;;4975824;28;20050;-68
2021/07/23 01:07:48;;;;;;;6.18;4.15;;;;;;;;;;4975995;28;20039;-68
2021/07/23 01:10:13;;;;;;;6.07;4.00;;;;;;;;;;4976443;28;20390;-67
2021/07/23 01:12:39;;;;;;;6.28;4.20;;;;;;;;;;4976863;28;20031;-67
2021/07/23 01:15:05;;;;;;;6.22;4.28;;;;;;;;;;4977363;28;20378;-67
2021/07/23 01:17:30;;;;;;;6.97;4.50;;;;;;;;;;4975147;28;20494;-67
2021/07/23 01:20:05;;;;;;;5.85;3.90;;;;;;;;;;4975978;28;20050;-67
2021/07/23 01:22:32;;;;;;;6.97;3.88;;;;;;;;;;4975362;28;20038;-67
2021/07/23 01:24:58;;;;;;;6.97;4.00;;;;;;;;;;4974255;28;20038;-67
2021/07/23 01:27:28;;;;;;;7.70;5.00;;;;;;;;;;4976002;28;20030;-67
2021/07/23 01:30:00;;;;;;;7.88;4.47;;;;;;;;;;4975504;28;20096;-67
2021/07/23 01:32:26;;;;;;;6.20;4.28;;;;;;;;;;4975494;28;20046;-68
2021/07/23 01:34:51;;;;;;;8.90;5.65;;;;;;;;;;4975531;28;20074;-67
2021/07/23 01:37:17;;;;;;;6.40;4.43;;;;;;;;;;4975831;28;20078;-67
2021/07/23 01:39:44;;;;;;;6.10;4.20;;;;;;;;;;4975627;28;20501;-67
2021/07/23 01:42:10;;;;;;;8.48;4.43;;;;;;;;;;4975230;28;20027;-68
2021/07/23 01:44:35;;;;;;;11.18;6.63;;;;;;;;;;4975916;28;20026;-67
2021/07/23 01:47:01;;;;;;;12.68;6.75;;;;;;;;;;4975384;28;20054;-68
2021/07/23 01:49:26;;;;;;;9.90;5.50;;;;;;;;;;4975346;28;20069;-68
2021/07/23 01:51:52;;;;;;;7.05;5.00;;;;;;;;;;4974936;28;20022;-68
2021/07/23 01:54:17;;;;;;;9.75;5.13;;;;;;;;;;4975626;28;20392;-68
2021/07/23 01:56:45;;;;;;;10.70;5.07;;;;;;;;;;4974985;28;20070;-68
2021/07/23 01:59:11;;;;;;;7.90;4.57;;;;;;;;;;4975275;28;20027;-68
2021/07/23 02:01:36;;;;;;;7.85;4.55;;;;;;;;;;4973647;28;20359;-68
2021/07/23 02:04:02;;;;;;;9.38;5.35;;;;;;;;;;4975004;28;20033;-68
2021/07/23 02:06:27;;;;;;;12.65;5.35;;;;;;;;;;4975480;28;20038;-68
2021/07/23 02:08:53;;;;;;;9.27;4.78;;;;;;;;;;4975867;28;20026;-68
2021/07/23 02:11:18;;;;;;;14.35;4.95;;;;;;;;;;4974834;28;20035;-68
2021/07/23 02:13:44;;;;;;;8.20;4.47;;;;;;;;;;4975061;28;20014;-68
2021/07/23 02:16:09;;;;;;;7.80;4.85;;;;;;;;;;4974328;28;20466;-68
2021/07/23 02:18:35;;;;;;;8.23;4.50;;;;;;;;;;4975019;28;20030;-68
2021/07/23 02:21:05;;;;;;;10.30;4.40;;;;;;;;;;4974602;28;20117;-68
2021/07/23 02:23:31;;;;;;;7.25;4.82;;;;;;;;;;4975417;28;20587;-68
2021/07/23 02:25:56;;;;;;;6.43;4.03;;;;;;;;;;4974697;28;20030;-68
2021/07/23 02:28:22;;;;;;;8.20;4.38;;;;;;;;;;4975200;28;20097;-68
2021/07/23 02:30:47;;;;;;;10.23;4.50;;;;;;;;;;4974716;28;20027;-69
2021/07/23 02:33:12;;;;;;;7.13;4.30;;;;;;;;;;4973990;28;20053;-69
2021/07/23 02:35:38;;;;;;;7.63;4.40;;;;;;;;;;4975189;28;20031;-68
2021/07/23 02:38:03;;;;;;;7.28;4.72;;;;;;;;;;4974541;28;20034;-68
2021/07/23 02:40:29;;;;;;;8.38;4.18;;;;;;;;;;4974600;28;20526;-68
2021/07/23 02:42:54;;;;;;;7.43;4.20;;;;;;;;;;4974521;28;20030;-68
2021/07/23 02:45:20;;;;;;;7.72;4.30;;;;;;;;;;4974389;28;20037;-68
2021/07/23 02:47:45;;;;;;;6.78;4.43;;;;;;;;;;4974282;28;20474;-68
2021/07/23 02:50:11;;;;;;;8.30;4.90;;;;;;;;;;4973952;28;20045;-68
2021/07/23 02:52:37;;;;;;;7.82;4.00;;;;;;;;;;4974830;28;20031;-68
2021/07/23 02:55:04;;;;;;;9.38;4.93;;;;;;;;;;4973691;28;20037;-68
2021/07/23 02:57:29;;;;;;;9.05;4.72;;;;;;;;;;4973645;28;20026;-68
2021/07/23 02:59:55;;;;;;;8.05;4.40;;;;;;;;;;4974126;28;20021;-68
2021/07/23 03:02:21;;;;;;;8.45;4.57;;;;;;;;;;4974052;28;20042;-68
2021/07/23 03:04:46;;;;;;;8.00;4.20;;;;;;;;;;4974450;28;20030;-68
2021/07/23 03:07:12;;;;;;;7.53;4.20;;;;;;;;;;4973764;28;20383;-68
2021/07/23 03:09:37;;;;;;;7.97;3.55;;;;;;;;;;4974555;28;20026;-68
2021/07/23 03:12:03;;;;;;;7.53;3.97;;;;;;;;;;4972990;28;20489;-68
2021/07/23 03:14:30;;;;;;;7.78;4.05;;;;;;;;;;4973904;28;20034;-68
2021/07/23 03:16:55;;;;;;;7.22;3.97;;;;;;;;;;4970382;28;20467;-68
2021/07/23 03:19:20;;;;;;;6.63;3.78;;;;;;;;;;4970608;28;20039;-67
2021/07/23 03:21:47;;;;;;;8.02;4.00;;;;;;;;;;4973496;28;20023;-67
2021/07/23 03:24:13;;;;;;;7.70;4.30;;;;;;;;;;4972169;28;20027;-68
2021/07/23 03:26:39;;;;;;;6.28;4.35;;;;;;;;;;4974341;28;20038;-68
2021/07/23 03:29:05;;;;;;;6.65;4.10;;;;;;;;;;4973837;28;20069;-68
2021/07/23 03:31:31;;;;;;;7.85;3.75;;;;;;;;;;4973909;28;20026;-68
2021/07/23 03:33:56;;;;;;;7.10;4.13;;;;;;;;;;4973739;28;20045;-68
2021/07/23 03:36:22;;;;;;;8.32;4.18;;;;;;;;;;4973301;28;20067;-68
2021/07/23 03:38:48;;;;;;;6.57;3.95;;;;;;;;;;4973528;28;20466;-68
2021/07/23 03:41:13;;;;;;;6.35;4.05;;;;;;;;;;4976091;28;20022;-68
2021/07/23 03:43:38;;;;;;;6.72;4.35;;;;;;;;;;4977796;28;20034;-68
2021/07/23 03:46:04;;;;;;;7.28;4.35;;;;;;;;;;4973888;28;20266;-68
2021/07/23 03:48:29;;;;;;;9.48;4.35;;;;;;;;;;4972590;28;20430;-68
2021/07/23 03:50:55;;;;;;;7.50;4.18;;;;;;;;;;4973551;28;20022;-68
2021/07/23 03:53:20;;;;;;;9.25;4.28;;;;;;;;;;4975767;28;20478;-68
2021/07/23 03:55:46;;;;;;;7.22;3.63;;;;;;;;;;4973881;28;20517;-68
2021/07/23 03:58:11;;;;;;;6.15;4.05;;;;;;;;;;4973683;28;20045;-67
2021/07/23 04:00:37;;;;;;;7.13;4.20;;;;;;;;;;4973667;28;20101;-68
2021/07/23 04:03:02;;;;;;;9.38;4.70;;;;;;;;;;4973764;28;20121;-68
2021/07/23 04:05:28;;;;;;;6.70;4.53;;;;;;;;;;4973096;28;20026;-68
2021/07/23 04:07:56;;;;;;;7.63;3.90;;;;;;;;;;4973484;28;20077;-68
2021/07/23 04:10:22;;;;;;;9.02;4.20;;;;;;;;;;4973442;28;21493;-68
2021/07/23 04:12:47;;;;;;;9.70;4.25;;;;;;;;;;4973747;28;20077;-68
2021/07/23 04:15:13;;;;;;;5.95;4.28;;;;;;;;;;4972221;28;20050;-68
2021/07/23 04:17:38;;;;;;;10.88;4.13;;;;;;;;;;4972784;28;20018;-68
2021/07/23 04:20:05;;;;;;;5.75;3.70;;;;;;;;;;4972637;28;20194;-68
2021/07/23 04:22:30;;;;;;;6.90;4.22;;;;;;;;;;4973216;28;20031;-68
2021/07/23 04:24:56;;;;;;;7.97;4.03;;;;;;;;;;4973894;28;20019;-68
2021/07/23 04:27:21;;;;;;;6.82;4.20;;;;;;;;;;4973486;28;20062;-68
2021/07/23 04:29:47;;;;;;;9.38;4.57;;;;;;;;;;4972372;28;20023;-68
2021/07/23 04:32:13;;;;;;;6.07;3.88;;;;;;;;;;4972105;28;20027;-68
2021/07/23 04:34:39;;;;;;;8.57;4.53;;;;;;;;;;4974130;28;20034;-68
2021/07/23 04:37:05;;;;;;;7.75;4.00;;;;;;;;;;4977639;28;20109;-68
2021/07/23 04:39:30;;;;;;;6.75;4.30;;;;;;;;;;4976364;28;20537;-68
2021/07/23 04:41:56;;;;;;;10.48;4.35;;;;;;;;;;4982844;28;20027;-68
2021/07/23 04:44:21;;;;;;;5.63;4.00;;;;;;;;;;4976331;28;20406;-68
2021/07/23 04:46:47;;;;;;;8.90;3.90;;;;;;;;;;4976276;28;20031;-68
2021/07/23 04:49:12;;;;;;;8.20;3.97;;;;;;;;;;4974923;28;20141;-68
2021/07/23 04:51:39;;;;;;;7.35;4.43;;;;;;;;;;4970227;28;20025;-68
2021/07/23 04:54:04;;;;;;;6.07;3.85;;;;;;;;;;4975337;28;20045;-68
2021/07/23 04:56:30;;;;;;;8.35;4.00;;;;;;;;;;4974986;28;20022;-68
2021/07/23 04:58:55;;;;;;;5.70;4.22;;;;;;;;;;4969646;28;20040;-68
2021/07/23 05:01:21;;;;;;;8.52;4.00;;;;;;;;;;4975334;28;20046;-68
2021/07/23 05:03:46;;;;;;;7.90;4.07;;;;;;;;;;4975997;28;20026;-68
2021/07/23 05:06:12;;;;;;;6.45;3.80;;;;;;;;;;4975553;28;20033;-68
2021/07/23 05:08:38;;;;;;;5.55;4.10;;;;;;;;;;4975801;28;20089;-68
2021/07/23 05:11:07;;;;;;;11.32;4.35;;;;;;;;;;4975225;28;20038;-69
2021/07/23 05:13:34;;;;;;;9.45;4.80;;;;;;;;;;4975887;28;20035;-69
2021/07/23 05:16:00;;;;;;;6.32;4.03;;;;;;;;;;4975901;28;20054;-68
2021/07/23 05:18:26;;;;;;;9.30;4.22;;;;;;;;;;4975360;28;20561;-68
2021/07/23 05:20:52;;;;;;;7.40;4.00;;;;;;;;;;4976345;28;20050;-68
2021/07/23 05:23:17;;;;;;;6.32;3.90;;;;;;;;;;4973133;28;20073;-68
2021/07/23 05:25:43;;;;;;;8.93;4.30;;;;;;;;;;4975030;28;20034;-68
2021/07/23 05:28:08;;;;;;;7.72;4.10;;;;;;;;;;4959714;28;20391;-69
2021/07/23 05:30:34;;;;;;;6.78;3.85;;;;;;;;;;4967263;28;20030;-68
2021/07/23 05:32:59;;;;;;;6.00;4.15;;;;;;;;;;4975548;28;20489;-69
2021/07/23 05:35:25;;;;;;;6.70;3.90;;;;;;;;;;4973287;28;20050;-69
2021/07/23 05:37:50;;;;;;;7.78;4.05;;;;;;;;;;4975764;28;20023;-68
2021/07/23 05:40:16;;;;;;;6.90;4.10;;;;;;;;;;4974978;28;20030;-68
2021/07/23 05:42:42;;;;;;;6.90;4.35;;;;;;;;;;4975627;28;20054;-68
2021/07/23 05:45:08;;;;;;;7.82;3.97;;;;;;;;;;4975375;28;20038;-68
2021/07/23 05:47:34;;;;;;;7.00;4.07;;;;;;;;;;4974947;28;20031;-69
2021/07/23 05:49:59;;;;;;;5.72;3.90;;;;;;;;;;4975547;28;20094;-70
2021/07/23 05:52:24;;;;;;;6.32;3.92;;;;;;;;;;4978590;28;20018;-70
2021/07/23 05:54:50;;;;;;;8.63;3.88;;;;;;;;;;4974372;28;20439;-69
2021/07/23 05:57:17;;;;;;;7.65;4.18;;;;;;;;;;4975999;28;20027;-68
2021/07/23 05:59:45;;;;;;;8.55;4.18;;;;;;;;;;4976521;28;20482;-70
2021/07/23 06:02:10;;;;;;;7.32;4.07;;;;;;;;;;4975054;28;20422;-69
2021/07/23 06:04:36;;;;;;;9.85;4.32;;;;;;;;;;4974556;28;20074;-71
2021/07/23 06:07:05;;;;;;;9.98;4.07;;;;;;;;;;4974802;28;20034;-69
2021/07/23 06:09:31;;;;;;;7.82;4.20;;;;;;;;;;4974552;28;20167;-69
2021/07/23 06:11:57;;;;;;;6.57;4.25;;;;;;;;;;4968101;28;20027;-69
2021/07/23 06:14:22;;;;;;;5.93;3.70;;;;;;;;;;4974987;28;20110;-69
2021/07/23 06:16:48;;;;;;;7.45;4.22;;;;;;;;;;4974354;28;20030;-68
2021/07/23 06:19:13;;;;;;;7.93;4.10;;;;;;;;;;4975032;28;20031;-72
2021/07/23 06:21:39;;;;;;;5.93;4.00;;;;;;;;;;4975025;28;20065;-69
2021/07/23 06:24:04;;;;;;;8.60;4.07;;;;;;;;;;4975129;28;20031;-71
2021/07/23 06:26:30;;;;;;;5.28;3.70;;;;;;;;;;4973128;28;20026;-68
2021/07/23 06:28:56;;;;;;;5.90;3.90;;;;;;;;;;4972984;28;20074;-67
2021/07/23 06:31:22;;;;;;;7.22;4.03;;;;;;;;;;4974350;28;20039;-70
2021/07/23 06:33:48;;;;;;;6.47;3.90;;;;;;;;;;4975798;28;20134;-71
2021/07/23 06:36:14;;;;;;;7.32;4.60;;;;;;;;;;4978479;28;20482;-69
2021/07/23 06:38:40;;;;;;;6.72;3.90;;;;;;;;;;4981279;28;20056;-69
2021/07/23 06:41:06;;;;;;;6.03;3.95;;;;;;;;;;4977087;28;20045;-70
2021/07/23 06:43:35;;;;;;;6.78;4.20;;;;;;;;;;4977410;28;20339;-70
2021/07/23 06:46:04;;;;;;;6.10;4.20;;;;;;;;;;4974543;28;20030;-71
2021/07/23 06:48:30;;;;;;;5.47;3.72;;;;;;;;;;4975315;28;20046;-70
2021/07/23 06:50:58;;;;;;;6.75;3.92;;;;;;;;;;4977313;28;20507;-68
2021/07/23 06:53:23;;;;;;;6.05;4.35;;;;;;;;;;4960991;28;20117;-71
2021/07/23 06:55:49;;;;;;;7.57;3.85;;;;;;;;;;4973916;28;20483;-70
2021/07/23 06:58:14;;;;;;;7.78;4.72;;;;;;;;;;4973605;28;20110;-67
2021/07/23 07:00:40;;;;;;;5.57;3.83;;;;;;;;;;4973802;28;20033;-69
2021/07/23 07:03:07;;;;;;;6.05;4.38;;;;;;;;;;4973867;28;20117;-69
2021/07/23 07:05:32;;;;;;;7.00;3.92;;;;;;;;;;4971752;28;20029;-71
2021/07/23 07:07:59;;;;;;;7.70;3.78;;;;;;;;;;4972765;28;20121;-71
2021/07/23 07:10:24;;;;;;;7.18;4.47;;;;;;;;;;4973916;28;20030;-72
2021/07/23 07:12:55;;;;;;;7.22;3.92;;;;;;;;;;4974291;28;20025;-72
2021/07/23 07:15:20;;;;;;;6.47;4.07;;;;;;;;;;4974455;28;20022;-70
2021/07/23 07:17:47;;;;;;;7.68;4.07;;;;;;;;;;4974837;28;20085;-76
2021/07/23 07:20:13;;;;;;;7.80;4.00;;;;;;;;;;4971303;28;20054;-77
2021/07/23 07:22:38;;;;;;;6.47;4.18;;;;;;;;;;4966053;28;20039;-77
2021/07/23 07:25:06;;;;;;;6.18;3.90;;;;;;;;;;4972883;28;20034;-77
2021/07/23 07:27:35;;;;;;;6.60;3.85;;;;;;;;;;4976015;28;20544;-79
2021/07/23 07:30:01;;;;;;;6.00;4.03;;;;;;;;;;4974814;28;20347;-78
2021/07/23 07:32:27;;;;;;;5.50;3.80;;;;;;;;;;4974015;28;20085;-79
2021/07/23 07:34:53;;;;;;;6.43;4.22;;;;;;;;;;4973986;28;20382;-75
2021/07/23 07:37:18;;;;;;;7.35;4.15;;;;;;;;;;4972313;28;20030;-75
2021/07/23 07:39:44;;;;;;;6.18;4.00;;;;;;;;;;4973460;28;20030;-75
2021/07/23 07:42:10;;;;;;;8.15;4.05;;;;;;;;;;4984738;28;20466;-77
2021/07/23 07:44:35;;;;;;;6.93;4.50;;;;;;;;;;4984311;28;20110;-78
2021/07/23 07:47:00;;;;;;;6.35;4.05;;;;;;;;;;4973834;28;20023;-77
2021/07/23 07:49:26;;;;;;;5.38;3.72;;;;;;;;;;4975372;28;20475;-81
2021/07/23 07:51:51;;;;;;;6.10;3.63;;;;;;;;;;4968983;28;20027;-80
2021/07/23 07:54:17;;;;;;;6.97;4.05;;;;;;;;;;4969291;28;20019;-81
2021/07/23 07:56:44;;;;;;;8.57;3.83;;;;;;;;;;4972328;28;20042;-76
2021/07/23 07:59:09;;;;;;;6.72;3.83;;;;;;;;;;4973959;28;20538;-70
2021/07/23 08:01:36;;;;;;;8.43;3.85;;;;;;;;;;4974720;28;20122;-71
2021/07/23 08:04:01;;;;;;;6.88;4.13;;;;;;;;;;4973017;28;20033;-69
2021/07/23 08:06:33;;;;;;;7.15;4.13;;;;;;;;;;4972384;28;20542;-76
2021/07/23 08:09:04;;;;;;;6.40;3.80;;;;;;;;;;4974299;28;20027;-70
2021/07/23 08:11:37;;;;;;;4.50;3.42;;;;;;;;;;4973505;28;20113;-72
2021/07/23 08:14:03;;;;;;;6.53;3.70;;;;;;;;;;4970144;28;20425;-71
2021/07/23 08:16:29;;;;;;;5.25;3.63;;;;;;;;;;4973773;28;20037;-70
2021/07/23 08:18:55;;;;;;;6.90;4.05;;;;;;;;;;4972649;28;20065;-70
2021/07/23 08:21:22;;;;;;;6.85;3.63;;;;;;;;;;4973726;28;20056;-69
2021/07/23 08:23:47;;;;;;;8.88;3.63;;;;;;;;;;4972559;28;20382;-71
2021/07/23 08:26:13;;;;;;;5.70;3.65;;;;;;;;;;4972601;28;20035;-69
2021/07/23 08:28:39;;;;;;;6.63;3.63;;;;;;;;;;4973834;28;20067;-71
2021/07/23 08:31:05;;;;;;;6.03;3.65;;;;;;;;;;4973802;28;20386;-71
2021/07/23 08:33:31;;;;;;;6.68;4.30;;;;;;;;;;4972854;28;20165;-69
2021/07/23 08:35:56;;;;;;;6.50;3.95;;;;;;;;;;4973565;28;20173;-71
2021/07/23 08:38:25;;;;;;;6.80;3.88;;;;;;;;;;4973446;28;20097;-71
2021/07/23 08:40:51;;;;;;;6.82;3.97;;;;;;;;;;4973496;28;20035;-71
2021/07/23 08:43:17;;;;;;;7.35;3.80;;;;;;;;;;4974901;28;20367;-72
2021/07/23 08:45:43;;;;;;;7.40;3.40;;;;;;;;;;4974067;28;20382;-69
2021/07/23 08:48:10;;;;;;;5.63;3.30;;;;;;;;;;4972833;28;20031;-70
2021/07/23 08:50:37;;;;;;;7.72;3.53;;;;;;;;;;4973169;28;20052;-72
2021/07/23 08:53:11;;;;;;;5.93;3.58;;;;;;;;;;4973532;28;20113;-70
2021/07/23 08:55:38;;;;;;;6.63;3.30;;;;;;;;;;4973035;28;20037;-69
2021/07/23 08:58:08;;;;;;;5.28;3.38;;;;;;;;;;4973302;28;20039;-68
2021/07/23 09:00:34;;;;;;;6.85;3.60;;;;;;;;;;4971987;28;20038;-70
2021/07/23 09:03:08;;;;;;;5.97;3.50;;;;;;;;;;4973323;28;20023;-69
2021/07/23 09:05:39;;;;;;;7.00;3.80;;;;;;;;;;4972563;28;20114;-71
2021/07/23 09:08:07;;;;;;;6.70;3.92;;;;;;;;;;4972676;28;20045;-72
2021/07/23 09:10:33;;;;;;;6.93;4.13;;;;;;;;;;4972623;28;20114;-69
2021/07/23 09:13:03;;;;;;;9.82;4.25;;;;;;;;;;4973160;28;20027;-68
2021/07/23 09:15:37;;;;;;;7.72;4.47;;;;;;;;;;4966932;28;20038;-70
2021/07/23 09:18:04;;;;;;;4.80;4.03;;;;;;;;;;4974543;28;20042;-69
2021/07/23 09:20:36;;;;;;;7.32;4.20;;;;;;;;;;4972025;28;20026;-69
2021/07/23 09:23:04;;;;;;;5.43;3.95;;;;;;;;;;4974613;28;20487;-71
2021/07/23 09:25:43;;;;;;;9.40;4.80;;;;;;;;;;4975799;28;20105;-70
2021/07/23 09:28:22;;;;;;;10.55;4.38;;;;;;;;;;4976362;28;20061;-71
2021/07/23 09:30:49;;;;;;;10.35;4.63;;;;;;;;;;4975541;28;20022;-70
2021/07/23 09:33:23;;;;;;;8.65;4.10;;;;;;;;;;4975519;28;20043;-71
2021/07/23 09:35:54;;;;;;;11.57;4.03;;;;;;;;;;4974765;28;20033;-71
2021/07/23 09:38:22;;;;;;;6.75;3.83;;;;;;;;;;4975712;28;20525;-74
2021/07/23 09:40:49;;;;;;;7.35;4.30;;;;;;;;;;4976098;28;20147;-71
2021/07/23 09:43:39;;;;;;;5.45;3.92;;;;;;;;;;4979251;28;20089;-69
2021/07/23 09:46:16;;;;;;;6.93;4.30;;;;;;;;;;4969471;28;20086;-72
2021/07/23 09:48:42;;;;;;;8.43;4.00;;;;;;;;;;4975492;28;20050;-78
2021/07/23 09:51:10;;;;;;;5.30;3.88;;;;;;;;;;4975676;28;20449;-75
2021/07/23 09:53:36;;;;;;;6.10;3.72;;;;;;;;;;4976237;28;20078;-78
2021/07/23 09:56:08;;;;;;;5.10;3.85;;;;;;;;;;4975675;28;20027;-74
2021/07/23 09:58:39;;;;;;;6.03;4.28;;;;;;;;;;4972251;28;20038;-75
2021/07/23 10:01:10;;;;;;;5.28;4.10;;;;;;;;;;4977510;28;20023;-75
2021/07/23 10:03:47;;;;;;;7.25;4.25;;;;;;;;;;4975493;28;20055;-78
2021/07/23 10:06:23;;;;;;;4.85;4.10;;;;;;;;;;4975772;28;20057;-80
2021/07/23 10:08:56;;;;;;;6.57;3.95;;;;;;;;;;4976207;28;20099;-78
2021/07/23 10:11:21;;;;;;;4.97;4.07;;;;;;;;;;4975667;28;20065;-77
2021/07/23 10:13:51;;;;;;;6.43;3.58;;;;;;;;;;4975826;28;20034;-78
2021/07/23 10:16:17;;;;;;;7.82;4.13;;;;;;;;;;4975983;28;20027;-78
2021/07/23 10:18:45;;;;;;;6.30;3.67;;;;;;;;;;4975226;28;20039;-79
2021/07/23 10:21:11;;;;;;;7.50;4.07;;;;;;;;;;4976419;28;20466;-79
2021/07/23 10:23:43;;;;;;;6.93;3.85;;;;;;;;;;4975823;28;20081;-79
2021/07/23 10:26:08;;;;;;;6.10;3.45;;;;;;;;;;4976197;28;20037;-76
2021/07/23 10:28:40;;;;;;;5.25;3.50;;;;;;;;;;4976453;28;20023;-77
2021/07/23 10:31:18;;;;;;;5.75;3.78;;;;;;;;;;4976156;28;20023;-78
2021/07/23 10:33:53;;;;;;;4.90;3.70;;;;;;;;;;4960544;28;20046;-77
2021/07/23 10:36:30;;;;;;;6.40;3.65;;;;;;;;;;4975680;28;20034;-75
2021/07/23 10:39:17;;;;;;;5.45;3.60;;;;;;;;;;4975717;28;20031;-75
2021/07/23 10:41:46;;;;;;;5.25;3.67;;;;;;;;;;4990159;28;20030;-74
2021/07/23 10:44:26;;;;;;;6.85;4.07;;;;;;;;;;4974878;28;20081;-78
2021/07/23 10:46:52;;;;;;;4.90;3.85;;;;;;;;;;4972168;28;20030;-75
2021/07/23 10:49:26;;;;;;;5.93;4.18;;;;;;;;;;4975163;28;20022;-75
2021/07/23 10:51:59;;;;;;;6.07;3.55;;;;;;;;;;4982996;28;20018;-75
2021/07/23 10:54:29;;;;;;;6.57;3.65;;;;;;;;;;4983567;28;20039;-75
2021/07/23 10:57:00;;;;;;;4.68;3.30;;;;;;;;;;4975521;28;20031;-75
2021/07/23 10:59:40;;;;;;;9.48;4.00;;;;;;;;;;4956141;28;20034;-75
2021/07/23 11:02:15;;;;;;;5.85;3.85;;;;;;;;;;4969568;28;20106;-75
2021/07/23 11:04:42;;;;;;;8.13;3.70;;;;;;;;;;4973986;28;20048;-74
2021/07/23 11:07:09;;;;;;;7.30;3.70;;;;;;;;;;4974869;28;20113;-75
2021/07/23 11:09:36;;;;;;;10.38;3.90;;;;;;;;;;4973853;28;20027;-78
2021/07/23 11:12:20;;;;;;;6.13;3.67;;;;;;;;;;4988781;28;20038;-78
2021/07/23 11:14:52;;;;;;;5.65;3.58;;;;;;;;;;4973043;28;20038;-79
2021/07/23 11:17:18;;;;;;;5.18;3.55;;;;;;;;;;4970572;28;20486;-79
2021/07/23 11:19:48;;;;;;;6.80;3.60;;;;;;;;;;4973640;28;20034;-75
2021/07/23 11:22:26;;;;;;;5.22;3.55;;;;;;;;;;4974474;28;20039;-75
2021/07/23 11:24:56;;;;;;;4.28;3.00;;;;;;;;;;4975509;28;20114;-75
2021/07/23 11:27:25;;;;;;;4.70;3.13;;;;;;;;;;4974814;28;20027;-73
2021/07/23 11:29:51;;;;;;;6.35;3.35;;;;;;;;;;4973036;28;20062;-73
2021/07/23 11:32:18;;;;;;;4.32;3.33;;;;;;;;;;4974277;28;20025;-76
2021/07/23 11:34:47;;;;;;;5.60;3.67;;;;;;;;;;4973711;28;20061;-75
2021/07/23 11:37:16;;;;;;;4.72;3.15;;;;;;;;;;4974313;28;20513;-75
2021/07/23 11:39:57;;;;;;;4.80;3.42;;;;;;;;;;4973836;28;20045;-73
2021/07/23 11:42:24;;;;;;;5.30;3.33;;;;;;;;;;4976106;28;20122;-78
2021/07/23 11:44:58;;;;;;;5.75;3.42;;;;;;;;;;4972988;28;20046;-74
2021/07/23 11:47:34;;;;;;;4.95;3.60;;;;;;;;;;4973862;28;20038;-76
2021/07/23 11:50:03;;;;;;;6.32;3.42;;;;;;;;;;4973351;28;20110;-76
2021/07/23 11:52:28;;;;;;;5.47;3.50;;;;;;;;;;4972049;28;20034;-76
2021/07/23 11:55:00;;;;;;;5.45;3.20;;;;;;;;;;4970366;28;20458;-77
2021/07/23 11:57:30;;;;;;;5.55;3.15;;;;;;;;;;4973629;28;20126;-78
2021/07/23 11:59:56;;;;;;;4.85;2.70;;;;;;;;;;4974039;28;20027;-77
2021/07/23 12:02:28;;;;;;;10.60;3.20;;;;;;;;;;4973581;28;20035;-76
2021/07/23 12:05:02;;;;;;;6.43;2.85;;;;;;;;;;4973108;28;20078;-76
2021/07/23 12:07:28;;;;;;;4.03;2.78;;;;;;;;;;4971309;28;20066;-74
2021/07/23 12:09:54;;;;;;;4.72;2.97;;;;;;;;;;4974273;28;20037;-73
2021/07/23 12:12:20;;;;;;;6.28;3.10;;;;;;;;;;4977102;28;20053;-74
2021/07/23 12:14:46;;;;;;;4.43;2.70;;;;;;;;;;4974480;28;20114;-76
2021/07/23 12:17:17;;;;;;;6.50;2.95;;;;;;;;;;4972338;28;20102;-74
2021/07/23 12:19:43;;;;;;;7.15;3.00;;;;;;;;;;4973325;28;20042;-75
2021/07/23 12:22:10;;;;;;;6.10;3.10;;;;;;;;;;4972994;28;20022;-75
2021/07/23 12:24:36;;;;;;;5.10;2.75;;;;;;;;;;4971845;28;20093;-75
2021/07/23 12:27:23;;;;;;;6.88;3.00;;;;;;;;;;4973592;28;20026;-74
2021/07/23 12:29:49;;;;;;;6.97;2.90;;;;;;;;;;4972888;28;20027;-74
2021/07/23 12:32:22;;;;;;;6.35;2.65;;;;;;;;;;4973202;28;20018;-74
2021/07/23 12:34:57;;;;;;;4.40;2.80;;;;;;;;;;4973397;28;20038;-76
2021/07/23 12:37:23;;;;;;;3.75;2.63;;;;;;;;;;4972275;28;20062;-75
2021/07/23 12:40:06;;;;;;;4.78;2.78;;;;;;;;;;4973716;28;20471;-74
2021/07/23 12:42:31;;;;;;;5.60;3.40;;;;;;;;;;4971834;28;20561;-74
2021/07/23 12:44:58;;;;;;;6.78;3.05;;;;;;;;;;4973138;28;20260;-74
2021/07/23 12:47:24;;;;;;;6.18;3.13;;;;;;;;;;4972999;28;20056;-76
2021/07/23 12:49:54;;;;;;;6.63;3.03;;;;;;;;;;4973328;28;20039;-74
2021/07/23 12:52:19;;;;;;;4.68;2.83;;;;;;;;;;4974422;28;20030;-75
2021/07/23 12:54:49;;;;;;;4.68;2.65;;;;;;;;;;4971852;28;20514;-74
2021/07/23 12:57:17;;;;;;;4.03;2.38;;;;;;;;;;4977337;28;20031;-74
2021/07/23 12:59:44;;;;;;;4.28;2.40;;;;;;;;;;4977290;28;20018;-75
2021/07/23 13:02:10;;;;;;;6.35;2.95;;;;;;;;;;4976249;28;20065;-74
2021/07/23 13:04:35;;;;;;;5.80;2.90;;;;;;;;;;4975955;28;20050;-74
2021/07/23 13:07:01;;;;;;;4.65;2.45;;;;;;;;;;4976480;28;20027;-74
2021/07/23 13:09:27;;;;;;;4.80;2.75;;;;;;;;;;4976733;28;20639;-74
2021/07/23 13:11:53;;;;;;;6.38;3.10;;;;;;;;;;4976286;28;20095;-75
2021/07/23 13:14:18;;;;;;;7.47;2.80;;;;;;;;;;4976511;28;20030;-75
2021/07/23 13:16:44;;;;;;;4.85;2.63;;;;;;;;;;4982466;28;20442;-74
2021/07/23 13:19:10;;;;;;;5.43;2.80;;;;;;;;;;4996017;28;20311;-74
2021/07/23 13:21:37;;;;;;;5.60;2.65;;;;;;;;;;4980730;28;20102;-74
2021/07/23 13:24:03;;;;;;;5.32;2.70;;;;;;;;;;4991302;28;20033;-75
2021/07/23 13:26:29;;;;;;;8.07;2.67;;;;;;;;;;4996144;28;20018;-74
2021/07/23 13:28:55;;;;;;;4.85;2.80;;;;;;;;;;4995597;28;20045;-74
2021/07/23 13:31:22;;;;;;;4.78;2.70;;;;;;;;;;4995987;28;20026;-74
2021/07/23 13:33:51;;;;;;;4.57;2.40;;;;;;;;;;4980354;28;20043;-75
2021/07/23 13:36:25;;;;;;;4.85;2.67;;;;;;;;;;4976108;28;20034;-74
2021/07/23 13:39:10;;;;;;;4.72;2.83;;;;;;;;;;4956676;29;20039;-75
2021/07/23 13:41:37;;;;;;;5.72;2.63;;;;;;;;;;4957201;28;20502;-75
2021/07/23 13:44:09;;;;;;;4.70;2.60;;;;;;;;;;4975931;28;20035;-74
2021/07/23 13:46:37;;;;;;;5.03;2.50;;;;;;;;;;4995555;28;20027;-76
2021/07/23 13:49:12;;;;;;;6.40;2.70;;;;;;;;;;4989404;28;20351;-74
2021/07/23 13:51:37;;;;;;;3.95;2.58;;;;;;;;;;4975768;28;20035;-74
2021/07/23 13:54:04;;;;;;;4.43;2.55;;;;;;;;;;4976669;28;20038;-74
2021/07/23 13:56:31;;;;;;;3.85;2.28;;;;;;;;;;4967325;28;20027;-74
2021/07/23 13:59:08;;;;;;;6.07;2.80;;;;;;;;;;4970580;28;20034;-75
2021/07/23 14:01:36;;;;;;;4.95;2.50;;;;;;;;;;4975455;28;20034;-78
2021/07/23 14:04:02;;;;;;;4.20;2.05;;;;;;;;;;4971469;28;20034;-74
2021/07/23 14:06:28;;;;;;;4.47;2.20;;;;;;;;;;4974774;28;20054;-74
2021/07/23 14:08:54;;;;;;;6.60;2.55;;;;;;;;;;4976066;28;20030;-74
2021/07/23 14:11:21;;;;;;;5.47;2.28;;;;;;;;;;4976310;28;20039;-74
2021/07/23 14:13:49;;;;;;;5.60;2.25;;;;;;;;;;4975758;28;20095;-76
2021/07/23 14:16:14;;;;;;;4.10;2.50;;;;;;;;;;4978082;28;20027;-75
2021/07/23 14:18:40;;;;;;;3.95;2.67;;;;;;;;;;4976771;28;20073;-73
2021/07/23 14:21:06;;;;;;;4.30;2.20;;;;;;;;;;4976226;28;20030;-74
2021/07/23 14:23:33;;;;;;;4.38;2.05;;;;;;;;;;4974693;28;20026;-74
2021/07/23 14:25:59;;;;;;;6.43;2.50;;;;;;;;;;4975516;28;20023;-76
2021/07/23 14:28:34;;;;;;;4.43;2.22;;;;;;;;;;4977967;28;20525;-73
2021/07/23 14:30:59;;;;;;;2.90;1.70;;;;;;;;;;4978677;28;20058;-74
2021/07/23 14:33:25;;;;;;;3.55;1.92;;;;;;;;;;4983346;28;20345;-77
2021/07/23 14:35:50;;;;;;;4.93;2.05;;;;;;;;;;4978621;28;20030;-75
2021/07/23 14:38:16;;;;;;;4.82;2.50;;;;;;;;;;4983463;28;20037;-77
2021/07/23 14:40:41;;;;;;;3.83;2.03;;;;;;;;;;4975220;28;20030;-74
2021/07/23 14:43:07;;;;;;;3.85;2.28;;;;;;;;;;4975590;28;20023;-76
2021/07/23 14:45:32;;;;;;;4.97;2.08;;;;;;;;;;4987253;28;20030;-68